createdAt,value
2022-08-27T18:42:10.997Z,5.60
2022-08-27T18:43:12.365Z,6.30
2022-08-27T18:44:17.353Z,6.20
2022-08-27T18:45:12.169Z,6.60
2022-08-27T18:46:12.846Z,6.20
2022-08-27T18:47:12.089Z,6.40
2022-08-27T18:48:12.096Z,6.60
2022-08-27T18:49:11.906Z,6.60
2022-08-27T18:50:17.562Z,6.00
2022-08-27T18:51:12.035Z,6.30
2022-08-27T18:52:12.241Z,6.70
2022-08-27T18:53:12.225Z,6.90
2022-08-27T18:54:11.805Z,6.60
2022-08-27T18:55:11.822Z,6.80
2022-08-27T18:56:11.878Z,6.50
2022-08-27T18:57:13.077Z,7.00
2022-08-27T18:58:11.947Z,6.90
2022-08-27T18:59:11.861Z,7.20
2022-08-27T19:00:11.770Z,7.30
2022-08-27T19:01:11.940Z,6.90
2022-08-27T19:02:12.007Z,6.90
2022-08-27T19:03:11.718Z,7.60
2022-08-27T19:04:12.012Z,7.60
2022-08-27T19:05:11.940Z,7.20
2022-08-27T19:06:11.684Z,7.30
2022-08-27T19:07:11.698Z,7.20
2022-08-27T19:08:12.254Z,7.20
2022-08-27T19:09:11.817Z,7.10
2022-08-27T19:10:12.334Z,7.20
2022-08-27T19:11:11.664Z,7.80
2022-08-27T19:12:12.246Z,7.70
2022-08-27T19:13:11.646Z,7.50
2022-08-27T19:14:11.653Z,7.40
2022-08-27T19:15:11.750Z,7.80
2022-08-27T19:16:11.645Z,8.00
2022-08-27T19:17:11.676Z,7.70
2022-08-27T19:18:11.916Z,7.70
2022-08-27T19:19:11.558Z,7.80
2022-08-27T19:20:11.545Z,8.10
2022-08-27T19:21:11.535Z,7.80
2022-08-27T19:22:11.564Z,8.10
2022-08-27T19:23:11.515Z,8.00
2022-08-27T19:24:11.933Z,8.10
2022-08-27T19:25:11.853Z,8.00
2022-08-27T19:26:11.706Z,8.70
2022-08-27T19:27:11.498Z,8.50
2022-08-27T19:28:11.682Z,8.70
2022-08-27T19:29:11.518Z,8.40
2022-08-27T19:30:11.713Z,8.50
2022-08-27T19:31:11.752Z,8.60
2022-08-27T19:32:12.235Z,8.60
2022-08-27T19:33:11.727Z,8.20
2022-08-27T19:34:11.664Z,8.00
2022-08-27T19:35:11.776Z,8.70
2022-08-27T19:36:15.476Z,8.10
2022-08-27T19:37:11.392Z,8.60
2022-08-27T19:38:11.537Z,8.70
2022-08-27T19:39:11.353Z,8.90
2022-08-27T19:40:11.380Z,9.00
2022-08-27T19:41:11.335Z,9.00
2022-08-27T19:42:11.334Z,8.40
2022-08-27T19:43:11.310Z,8.60
2022-08-27T19:44:11.322Z,8.30
2022-08-27T19:45:11.295Z,8.90
2022-08-27T19:46:11.408Z,8.40
2022-08-27T19:47:11.309Z,8.90
2022-08-27T19:48:11.396Z,8.70
2022-08-27T19:49:11.249Z,9.50
2022-08-27T19:50:11.299Z,8.90
2022-08-27T19:51:11.232Z,9.30
2022-08-27T19:52:11.258Z,9.00
2022-08-27T19:53:11.230Z,8.40
2022-08-27T19:54:11.228Z,8.80
2022-08-27T19:55:13.956Z,8.80
2022-08-27T19:56:11.172Z,8.60
2022-08-27T19:57:11.454Z,8.50
2022-08-27T19:58:11.397Z,8.70
2022-08-27T19:59:21.018Z,9.00
2022-08-27T20:00:11.166Z,8.90
2022-08-27T20:01:11.233Z,8.30
2022-08-27T20:02:11.137Z,8.80
2022-08-27T20:03:11.106Z,8.80
2022-08-27T20:04:11.181Z,9.10
2022-08-27T20:05:19.270Z,8.40
2022-08-27T20:06:11.087Z,8.90
2022-08-27T20:07:11.087Z,8.40
2022-08-27T20:08:12.694Z,9.30
2022-08-27T20:09:11.047Z,9.20
2022-08-27T20:10:11.029Z,8.90
2022-08-27T20:11:11.024Z,8.70
2022-08-27T20:12:11.052Z,8.40
2022-08-27T20:13:11.007Z,9.10
2022-08-27T20:14:10.991Z,8.50
2022-08-27T20:15:10.984Z,8.70
2022-08-27T20:16:13.594Z,8.10
2022-08-27T20:17:10.991Z,9.20
2022-08-27T20:18:11.204Z,8.80
2022-08-27T20:19:10.942Z,8.50
2022-08-27T20:20:10.925Z,8.90
2022-08-27T20:21:10.943Z,9.20
2022-08-27T20:22:10.928Z,9.10
2022-08-27T20:23:10.901Z,9.90
2022-08-27T20:24:10.888Z,9.40
2022-08-27T20:25:10.885Z,9.70
2022-08-27T20:26:10.866Z,9.10
2022-08-27T20:27:11.189Z,8.90
2022-08-27T20:28:35.331Z,9.40
2022-08-27T20:29:10.846Z,9.10
2022-08-27T20:30:10.826Z,10.00
2022-08-27T20:31:10.922Z,9.70
2022-08-27T20:32:10.829Z,9.50
2022-08-27T20:33:10.862Z,10.30
2022-08-27T20:34:10.786Z,9.70
2022-08-27T20:35:10.780Z,9.60
2022-08-27T20:36:10.808Z,9.90
2022-08-27T20:37:10.763Z,10.40
2022-08-27T20:38:10.934Z,9.90
2022-08-27T20:39:10.843Z,10.10
2022-08-27T20:40:10.753Z,10.60
2022-08-27T20:41:10.717Z,11.10
2022-08-27T20:42:10.721Z,11.10
2022-08-27T20:43:10.699Z,10.10
2022-08-27T20:44:10.757Z,10.90
2022-08-27T20:45:12.331Z,10.50
2022-08-27T20:46:11.109Z,10.50
2022-08-27T20:47:10.689Z,10.70
2022-08-27T20:48:10.877Z,9.70
2022-08-27T20:49:10.636Z,10.20
2022-08-27T20:50:11.879Z,10.30
2022-08-27T20:51:10.664Z,10.10
2022-08-27T20:52:11.770Z,10.50
2022-08-27T20:53:10.595Z,10.80
2022-08-27T20:54:10.608Z,9.90
2022-08-27T20:55:10.576Z,10.40
2022-08-27T20:56:10.564Z,10.50
2022-08-27T20:57:10.578Z,10.60
2022-08-27T20:58:10.575Z,10.50
2022-08-27T20:59:10.532Z,11.40
2022-08-27T21:00:10.519Z,11.00
2022-08-27T21:01:10.608Z,10.10
2022-08-27T21:02:10.620Z,11.10
2022-08-27T21:03:10.493Z,11.40
2022-08-27T21:04:10.483Z,10.80
2022-08-27T21:05:10.472Z,10.90
2022-08-27T21:06:10.458Z,11.30
2022-08-27T21:07:10.487Z,10.70
2022-08-27T21:08:10.605Z,11.00
2022-08-27T21:09:10.489Z,10.90
2022-08-27T21:10:10.416Z,10.70
2022-08-27T21:11:10.411Z,11.40
2022-08-27T21:12:10.413Z,11.10
2022-08-27T21:13:12.447Z,11.00
2022-08-27T21:14:10.378Z,11.20
2022-08-27T21:15:10.371Z,10.80
2022-08-27T21:16:10.443Z,11.20
2022-08-27T21:17:10.368Z,11.80
2022-08-27T21:18:10.406Z,11.60
2022-08-27T21:19:10.332Z,11.90
2022-08-27T21:20:10.319Z,11.40
2022-08-27T21:21:10.312Z,11.90
2022-08-27T21:22:10.314Z,11.50
2022-08-27T21:23:10.299Z,11.60
2022-08-27T21:24:10.391Z,11.80
2022-08-27T21:25:10.272Z,10.80
2022-08-27T21:26:10.258Z,11.70
2022-08-27T21:27:10.268Z,11.50
2022-08-27T21:28:10.343Z,12.60
2022-08-27T21:29:10.234Z,12.10
2022-08-27T21:30:10.217Z,11.90
2022-08-27T21:31:10.261Z,11.60
2022-08-27T21:32:10.222Z,12.10
2022-08-27T21:33:10.188Z,11.50
2022-08-27T21:34:10.173Z,12.50
2022-08-27T21:35:10.179Z,12.00
2022-08-27T21:36:12.435Z,12.10
2022-08-27T21:37:10.182Z,12.10
2022-08-27T21:38:10.364Z,12.10
2022-08-27T21:39:10.124Z,13.20
2022-08-27T21:40:10.225Z,12.60
2022-08-27T21:41:10.106Z,12.40
2022-08-27T21:42:10.114Z,12.40
2022-08-27T21:43:10.658Z,12.80
2022-08-27T21:44:10.071Z,13.10
2022-08-27T21:45:10.065Z,12.90
2022-08-27T21:46:10.063Z,13.20
2022-08-27T21:47:10.070Z,14.00
2022-08-27T21:48:10.408Z,13.20
2022-08-27T21:49:10.036Z,12.80
2022-08-27T21:50:10.027Z,13.80
2022-08-27T21:51:10.188Z,14.20
2022-08-27T21:52:10.009Z,13.40
2022-08-27T21:53:09.989Z,13.20
2022-08-27T21:54:09.969Z,13.60
2022-08-27T21:55:09.963Z,14.20
2022-08-27T21:56:09.951Z,13.90
2022-08-27T21:57:09.962Z,13.70
2022-08-27T21:58:09.931Z,13.80
2022-08-27T21:59:09.927Z,13.30
2022-08-27T22:00:09.906Z,13.70
2022-08-27T22:01:09.941Z,12.70
2022-08-27T22:02:23.219Z,13.90
2022-08-27T22:03:10.450Z,13.60
2022-08-27T22:04:09.867Z,13.80
2022-08-27T22:05:09.887Z,14.00
2022-08-27T22:06:09.850Z,13.10
2022-08-27T22:07:09.862Z,13.10
2022-08-27T22:08:09.834Z,13.50
2022-08-27T22:09:09.826Z,13.00
2022-08-27T22:10:09.809Z,13.10
2022-08-27T22:11:09.806Z,13.40
2022-08-27T22:12:09.846Z,13.80
2022-08-27T22:13:09.786Z,13.20
2022-08-27T22:14:09.765Z,13.80
2022-08-27T22:15:09.759Z,14.70
2022-08-27T22:16:09.786Z,14.60
2022-08-27T22:17:09.758Z,14.50
2022-08-27T22:18:09.782Z,14.90
2022-08-27T22:19:09.718Z,14.40
2022-08-27T22:20:09.711Z,14.70
2022-08-27T22:21:09.702Z,15.60
2022-08-27T22:22:09.722Z,14.70
2022-08-27T22:23:09.678Z,14.60
2022-08-27T22:24:09.662Z,14.80
2022-08-27T22:25:09.671Z,15.20
2022-08-27T22:26:09.640Z,14.80
2022-08-27T22:27:09.654Z,14.90
2022-08-27T22:28:09.656Z,15.60
2022-08-27T22:29:09.618Z,14.90
2022-08-27T22:30:11.345Z,16.00
2022-08-27T22:31:10.373Z,15.10
2022-08-27T22:32:09.612Z,15.30
2022-08-27T22:33:09.580Z,15.70
2022-08-27T22:34:09.560Z,15.10
2022-08-27T22:35:09.686Z,15.00
2022-08-27T22:36:09.541Z,15.50
2022-08-27T22:37:09.553Z,14.80
2022-08-27T22:38:09.521Z,15.40
2022-08-27T22:39:09.524Z,15.30
2022-08-27T22:40:19.119Z,15.70
2022-08-27T22:41:09.501Z,15.80
2022-08-27T22:42:09.497Z,15.90
2022-08-27T22:43:09.476Z,15.00
2022-08-27T22:44:09.471Z,14.80
2022-08-27T22:45:09.455Z,15.40
2022-08-27T22:46:09.544Z,16.60
2022-08-27T22:47:09.690Z,15.70
2022-08-27T22:48:09.415Z,16.00
2022-08-27T22:49:09.416Z,15.10
2022-08-27T22:50:09.397Z,15.60
2022-08-27T22:51:09.397Z,15.30
2022-08-27T22:52:09.397Z,16.40
2022-08-27T22:53:09.379Z,15.60
2022-08-27T22:54:09.360Z,16.40
2022-08-27T22:55:09.342Z,15.70
2022-08-27T22:56:09.353Z,16.00
2022-08-27T22:57:10.417Z,15.60
2022-08-27T22:58:09.325Z,15.60
2022-08-27T22:59:09.305Z,16.20
2022-08-27T23:00:09.299Z,16.10
2022-08-27T23:01:09.285Z,15.70
2022-08-27T23:02:09.287Z,15.70
2022-08-27T23:03:09.284Z,15.50
2022-08-27T23:04:09.369Z,16.00
2022-08-27T23:05:09.447Z,16.40
2022-08-27T23:06:09.288Z,15.70
2022-08-27T23:07:09.230Z,15.30
2022-08-27T23:08:09.284Z,16.40
2022-08-27T23:09:09.203Z,16.10
2022-08-27T23:10:09.201Z,16.10
2022-08-27T23:11:09.182Z,15.20
2022-08-27T23:12:09.176Z,15.70
2022-08-27T23:13:09.185Z,15.80
2022-08-27T23:14:09.154Z,15.50
2022-08-27T23:15:09.140Z,16.00
2022-08-27T23:16:09.292Z,16.00
2022-08-27T23:17:09.124Z,16.00
2022-08-27T23:18:09.138Z,15.80
2022-08-27T23:19:09.100Z,16.00
2022-08-27T23:20:09.094Z,16.00
2022-08-27T23:21:09.092Z,16.70
2022-08-27T23:22:09.080Z,15.70
2022-08-27T23:23:09.081Z,15.90
2022-08-27T23:24:09.067Z,16.30
2022-08-27T23:25:09.071Z,16.00
2022-08-27T23:26:09.032Z,17.30
2022-08-27T23:27:09.019Z,17.20
2022-08-27T23:28:13.514Z,16.10
2022-08-27T23:29:09.007Z,16.80
2022-08-27T23:30:08.994Z,17.00
2022-08-27T23:31:09.046Z,17.40
2022-08-27T23:32:08.974Z,18.10
2022-08-27T23:33:08.976Z,17.10
2022-08-27T23:34:08.953Z,16.80
2022-08-27T23:35:08.939Z,16.30
2022-08-27T23:36:08.928Z,17.10
2022-08-27T23:37:08.913Z,16.70
2022-08-27T23:38:08.996Z,16.60
2022-08-27T23:39:08.895Z,16.40
2022-08-27T23:40:08.931Z,16.40
2022-08-27T23:41:08.872Z,16.10
2022-08-27T23:42:08.867Z,17.30
2022-08-27T23:43:08.873Z,17.10
2022-08-27T23:44:08.851Z,17.00
2022-08-27T23:45:08.834Z,17.10
2022-08-27T23:46:08.872Z,17.00
2022-08-27T23:47:08.811Z,17.40
2022-08-27T23:48:08.893Z,17.30
2022-08-27T23:49:08.790Z,17.30
2022-08-27T23:50:08.786Z,17.50
2022-08-27T23:51:08.774Z,17.20
2022-08-27T23:52:08.767Z,17.40
2022-08-27T23:53:08.774Z,17.30
2022-08-27T23:54:08.745Z,18.20
2022-08-27T23:55:08.740Z,17.50
2022-08-27T23:56:08.727Z,17.40
2022-08-27T23:57:08.712Z,17.80
2022-08-27T23:58:08.797Z,17.50
2022-08-27T23:59:08.689Z,18.30
